Hernandez, New Mexico
Current Conditions -  °F | °C
As of 5:15 PM on Thursday 18 Dec 2014 (Local Time) from KLAM Reporting Station
Overcast Overcast  
Wind Chill: 33°   Ceiling: 4100
Heat Index: 33°   Visibility: 10mi
Dew Point: 24°   Wind: 3mph
Humidity: 70%   Direction: 270°W
Pressure: 30.09"   Gusts: NA
Location:  36.06°N, 106.12°W
Report Text: KLAM 190015Z AUTO 27003KT 10SM SCT034 BKN041 OVC048 00/M04 A3009 RMK AO2 T00041045
Loading
Personal Weather Stations






























Interactive Weather Map New forecast layout! Learn more

10-Day Weather Forecast

Advertisements
Track Severe Weather on mobile